• Join FlightAware (Why Join?)
  • Login
  • US Flag 
09:00AM EDT


 

Airport Tracker/Info


-or-


 

Live Flight TrackerFlight Track Log ✈ CTL18 ✈ 02-May-2013 ✈ KYIP - KBKL

Flight Track Log - Related Links

Times and Time Zones

All times are in EDT time to prevent confusion due to time zone crossing. See the CTL18 flight status page for this flight to view local times or setup timezone preferences in your user account.

Time Position Orientation Groundspeed Altitude Reporting Facility
EDT Latitude Longitude Course Direction KTS MPH feet Rate Location/Type
09:12PM 42.1914 -83.5933 224° Southwest 135 155 2,200  Level Cleveland Center
09:13PM 42.1558 -83.6000 188° South 128 147 3,000 360 Climbing Cleveland Center
09:14PM 42.1186 -83.5842 162° South 151 174 3,000  Level Cleveland Center
09:15PM 42.0925 -83.5522 138° Southeast 156 180 3,000 -60 Level Cleveland Center
09:16PM 42.0647 -83.5006 126° Southeast 160 184 2,900  Descending Cleveland Center
09:17PM 42.0472 -83.4439 113° Southeast 160 184 3,000  Climbing Cleveland Center
09:18PM 42.0319 -83.3900 111° Southeast 156 180 3,000 180 Level Cleveland Center
09:19PM 42.0164 -83.3389 112° Southeast 151 174 3,400 480 Climbing Cleveland Center
09:20PM 41.9969 -83.2850 116° Southeast 140 161 4,000 540 Climbing Cleveland Center
09:21PM 41.9836 -83.2314 108° East 140 161 4,600 420 Climbing Cleveland Center
09:22PM 41.9639 -83.1803 117° Southeast 139 160 5,000 180 Climbing Cleveland Center
09:23PM 41.9464 -83.1294 115° Southeast 163 188 5,000  Level Cleveland Center
09:24PM 41.9286 -83.0783 115° Southeast 150 173 5,000  Level Cleveland Center
09:25PM 41.9131 -83.0247 111° Southeast 148 170 5,000  Level Cleveland Center
09:26PM 41.9092 -83.0078 107° East 148 170 5,000  Level Cleveland Center
09:26PM 41.8994 -82.9822 117° Southeast 148 170 5,000  Level Cleveland Center
09:27PM 41.8839 -82.9233 110° East 151 174 5,000  Level Cleveland Center
09:28PM 41.8683 -82.8697 111° Southeast 147 169 5,000  Level Cleveland Center
09:29PM 41.8547 -82.8161 109° East 151 174 5,000  Level Cleveland Center
09:30PM 41.8372 -82.7625 114° Southeast 152 175 5,000  Level Cleveland Center
09:31PM 41.8192 -82.7119 116° Southeast 150 173 5,000  Level Cleveland Center
09:32PM 41.8078 -82.6586 106° East 152 175 5,000 -60 Level Cleveland Center
09:33PM 41.7919 -82.6106 114° Southeast 152 175 4,900 -300 Descending Cleveland Center
09:34PM 41.7742 -82.5544 113° Southeast 163 188 4,500 -420 Descending Cleveland Center
09:35PM 41.7583 -82.4956 110° East 167 192 4,100 -360 Descending Cleveland Center
09:36PM 41.7428 -82.4367 109° East 166 191 3,800 -360 Descending Cleveland Center
09:37PM 41.7247 -82.3858 115° Southeast 163 188 3,500 -420 Descending Cleveland Center
09:38PM 41.7111 -82.3272 107° East 164 189 3,100 -360 Descending Cleveland Center
09:39PM 41.6972 -82.2767 110° East 156 180 2,900 -240 Descending Cleveland Center
09:40PM 41.6792 -82.2289 117° Southeast 148 170 2,700 -180 Descending Cleveland Center
09:41PM 41.6633 -82.1786 113° Southeast 143 165 2,600 -240 Descending Cleveland Center
09:42PM 41.6494 -82.1281 110° East 149 171 2,300 -300 Descending Cleveland Center
09:43PM 41.6356 -82.0750 109° East 148 170 2,100 -180 Descending Cleveland Center
09:44PM 41.6153 -82.0192 116° Southeast 141 162 2,000 -120 Descending Cleveland Center
09:45PM 41.5992 -81.9714 114° Southeast 143 165 1,900 -180 Descending Cleveland Center
09:46PM 41.5831 -81.9211 113° Southeast 144 166 1,700 -240 Descending Cleveland Center